Coral Electra — PCAG — position and weather

sailwx.info

Track history (hours):
 
Tides and Currents Weather Stations Pressure Air Temp Water Temp Dewpoint Dewpoint Depression Visibility Wind Speed Wind Dir Waves Ship Positions

Coral Electra

Last reported at 2016-Jun-25 08:32 UTC. Time now 2016-Jun-25 08:53 UTC.
Position N 53°27' E 006°50'.

Length 14 m.

Type: Port tender. MMSI: 244690019.

Date/timePositionNaut miles runAvg speedWind from/ knotsBaromVisibWave heightAir tempDewpointWater temp
2016-Jun-25 08:32N 53°27' E 006°50'0 0.0
2016-Jun-25 07:30N 53°27' E 006°50'0 0.0
2016-Jun-25 06:34N 53°27' E 006°50'0 0.0
2016-Jun-25 05:28N 53°27' E 006°50'0 0.0
2016-Jun-25 04:29N 53°27' E 006°50'0 0.0
2016-Jun-25 03:33N 53°27' E 006°50'0 0.0
2016-Jun-25 02:32N 53°27' E 006°50'0 0.0
2016-Jun-25 01:33N 53°27' E 006°50'0 0.0
2016-Jun-25 00:33N 53°27' E 006°50'0 0.0
2016-Jun-24 23:32N 53°27' E 006°50'0 0.0
2016-Jun-24 22:31N 53°27' E 006°50'0 0.0
2016-Jun-24 21:31N 53°27' E 006°50'0 0.0
2016-Jun-24 20:28N 53°27' E 006°50'0 0.0
2016-Jun-24 19:33N 53°27' E 006°50'0 0.0
2016-Jun-24 18:34N 53°27' E 006°50'0 0.0
2016-Jun-24 17:33N 53°27' E 006°50'0 0.0
2016-Jun-24 16:32N 53°27' E 006°50'0 0.0
2016-Jun-24 15:30N 53°27' E 006°50'0 0.0
2016-Jun-24 14:31N 53°27' E 006°50'2 2.1
2016-Jun-24 13:33N 53°28' E 006°53'1 1.3
2016-Jun-24 12:33N 53°27' E 006°50'1 0.9
2016-Jun-24 11:29N 53°27' E 006°50'0 0.0
2016-Jun-24 10:32N 53°27' E 006°50'0 0.0
2016-Jun-24 09:30N 53°27' E 006°50'0 0.0
2016-Jun-24 08:32N 53°27' E 006°50'0 0.0
2016-Jun-24 07:33N 53°27' E 006°50'0 0.0
2016-Jun-24 04:33N 53°27' E 006°50'0 0.0
2016-Jun-24 03:31N 53°27' E 006°50'0 0.0
2016-Jun-24 02:29N 53°27' E 006°50'0 0.0
2016-Jun-24 01:32N 53°27' E 006°50'0 0.0
2016-Jun-24 00:33N 53°27' E 006°50'0 0.0
2016-Jun-23 23:33N 53°27' E 006°50'0 0.0
2016-Jun-23 22:33N 53°27' E 006°50'0 0.0
2016-Jun-23 21:31N 53°27' E 006°50'0 0.0
2016-Jun-23 20:28N 53°27' E 006°50'0 0.0
2016-Jun-23 19:25N 53°27' E 006°50'0 0.0
2016-Jun-23 18:30N 53°27' E 006°50'0 0.0
2016-Jun-23 17:33N 53°27' E 006°50'0 0.0
2016-Jun-23 16:32N 53°27' E 006°50'0 0.0
2016-Jun-23 15:33N 53°27' E 006°50'0 0.0
2016-Jun-23 14:31N 53°27' E 006°50'0 0.0
2016-Jun-23 13:28N 53°27' E 006°50'0 0.0
2016-Jun-23 12:33N 53°27' E 006°50'0 0.0
2016-Jun-23 11:33N 53°27' E 006°50'0 0.0
2016-Jun-23 10:33N 53°27' E 006°50'0 0.0
2016-Jun-23 09:33N 53°27' E 006°50'0 0.0
2016-Jun-23 08:31N 53°27' E 006°50'0 0.0
2016-Jun-23 07:33N 53°27' E 006°50'0 0.0
2016-Jun-23 05:28N 53°27' E 006°50'0 0.0
2016-Jun-23 04:31N 53°27' E 006°50'0 0.0
2016-Jun-23 03:28N 53°27' E 006°50'0 0.0
2016-Jun-23 02:33N 53°27' E 006°50'0 0.0
2016-Jun-23 01:28N 53°27' E 006°50'0 0.0
2016-Jun-23 00:33N 53°27' E 006°50'0 0.0
2016-Jun-22 23:29N 53°27' E 006°50'0 0.0
2016-Jun-22 22:25N 53°27' E 006°50'0 0.0
2016-Jun-22 21:28N 53°27' E 006°50'0 0.0
2016-Jun-22 20:32N 53°27' E 006°50'0 0.0
2016-Jun-22 19:28N 53°27' E 006°50'0 0.0
2016-Jun-22 18:33N 53°27' E 006°50'0 0.0
2016-Jun-22 17:31N 53°27' E 006°50'0 0.0
2016-Jun-22 16:32N 53°27' E 006°50'5 5.4
2016-Jun-22 15:34N 53°24' E 006°57'5 5.1
2016-Jun-22 14:34N 53°27' E 006°50'0 0.2
2016-Jun-22 13:33N 53°27' E 006°50'0 0.0
2016-Jun-22 12:32N 53°27' E 006°50'0 0.0
2016-Jun-22 11:32N 53°27' E 006°50'8 6.8
2016-Jun-22 10:25N 53°34' E 006°45'1 1.3
2016-Jun-22 09:32N 53°33' E 006°43'1414.0
2016-Jun-22 08:33N 53°22' E 006°58'7 6.3
2016-Jun-22 07:31N 53°27' E 006°50'0 0.0
2016-Jun-22 06:29N 53°27' E 006°50'0 0.0
2016-Jun-22 05:31N 53°27' E 006°50'0 0.0
2016-Jun-22 04:30N 53°27' E 006°50'0 0.0
2016-Jun-22 03:31N 53°27' E 006°50'0 0.0
2016-Jun-22 02:34N 53°27' E 006°50'0 0.0
2016-Jun-22 01:31N 53°27' E 006°50'0 0.0
2016-Jun-22 00:33N 53°27' E 006°50'0 0.0
2016-Jun-21 23:32N 53°27' E 006°50'0 0.0
2016-Jun-21 22:22N 53°27' E 006°50'0 0.0
2016-Jun-21 21:33N 53°27' E 006°50'0 0.0
2016-Jun-21 20:33N 53°27' E 006°50'0 0.0
2016-Jun-21 19:30N 53°27' E 006°50'0 0.0
2016-Jun-21 18:31N 53°27' E 006°50'0 0.0
2016-Jun-21 17:33N 53°27' E 006°50'0 0.0
2016-Jun-21 16:28N 53°27' E 006°50'0 0.0
2016-Jun-21 15:33N 53°27' E 006°50'0 0.0
2016-Jun-21 14:33N 53°27' E 006°50'0 0.0
2016-Jun-21 13:28N 53°27' E 006°50'0 0.0
2016-Jun-21 12:32N 53°27' E 006°50'0 0.0
2016-Jun-21 11:32N 53°27' E 006°50'0 0.0
2016-Jun-21 10:34N 53°27' E 006°50'0 0.0
2016-Jun-21 09:31N 53°27' E 006°50'0 0.0
2016-Jun-21 08:32N 53°27' E 006°50'0 0.0
2016-Jun-21 07:32N 53°27' E 006°50'0 0.0
2016-Jun-21 04:33N 53°27' E 006°50'0 0.0
2016-Jun-21 03:23N 53°27' E 006°50'0 0.0
2016-Jun-21 02:33N 53°27' E 006°50'0 0.0
2016-Jun-21 01:33N 53°27' E 006°50'0 0.0
2016-Jun-21 00:33N 53°27' E 006°50'0 0.0
2016-Jun-20 23:33N 53°27' E 006°50'0 0.0
2016-Jun-20 22:33N 53°27' E 006°50'0 0.0
2016-Jun-20 21:31N 53°27' E 006°50'0 0.0
2016-Jun-20 20:30N 53°27' E 006°50'0 0.0
2016-Jun-20 19:28N 53°27' E 006°50'0 0.0
2016-Jun-20 18:32N 53°27' E 006°50'0 0.0
2016-Jun-20 17:32N 53°27' E 006°50'0 0.0
2016-Jun-20 16:33N 53°27' E 006°50'0 0.0
2016-Jun-20 15:33N 53°27' E 006°50'0 0.0
2016-Jun-20 14:31N 53°27' E 006°50'0 0.0
2016-Jun-20 13:28N 53°27' E 006°50'0 0.0
2016-Jun-20 12:32N 53°27' E 006°50'0 0.0
2016-Jun-20 11:33N 53°27' E 006°50'0 0.0
2016-Jun-20 10:32N 53°27' E 006°50'0 0.0
2016-Jun-20 09:33N 53°27' E 006°50'0 0.0
2016-Jun-20 08:28N 53°27' E 006°50'0 0.0
2016-Jun-20 07:28N 53°27' E 006°50'0 0.0
2016-Jun-20 06:33N 53°27' E 006°50'0 0.0
2016-Jun-20 05:33N 53°27' E 006°50'0 0.0
2016-Jun-20 04:32N 53°27' E 006°50'0 0.0
2016-Jun-20 03:28N 53°27' E 006°50'0 0.0
2016-Jun-20 02:33N 53°27' E 006°50'0 0.0
2016-Jun-20 01:31N 53°27' E 006°50'0 0.0
2016-Jun-20 00:31N 53°27' E 006°50'0 0.0
2016-Jun-19 23:30N 53°27' E 006°50'0 0.0
2016-Jun-19 22:28N 53°27' E 006°50'0 0.0
2016-Jun-19 21:33N 53°27' E 006°50'0 0.0
2016-Jun-19 20:29N 53°27' E 006°50'0 0.0
2016-Jun-19 19:32N 53°27' E 006°50'0 0.0
2016-Jun-19 18:33N 53°27' E 006°50'0 0.0
2016-Jun-19 17:32N 53°27' E 006°50'0 0.0
2016-Jun-19 16:33N 53°27' E 006°50'7 6.8
2016-Jun-19 15:33N 53°31' E 006°41'2322.7
2016-Jun-19 14:33N 53°45' E 006°10'6 6.3
2016-Jun-19 13:32N 53°50' E 006°03'1414.0
2016-Jun-19 12:33N 53°41' E 006°21'1414.4
2016-Jun-19 11:33N 53°33' E 006°41'8 8.1
2016-Jun-19 10:32N 53°27' E 006°50'0 0.0
2016-Jun-19 09:33N 53°27' E 006°50'0 0.0
2016-Jun-19 08:32N 53°27' E 006°50'0 0.0
2016-Jun-19 07:29N 53°27' E 006°50'0 0.0
2016-Jun-19 06:33N 53°27' E 006°50'0 0.0
2016-Jun-19 05:30N 53°27' E 006°50'0 0.0
2016-Jun-19 04:31N 53°27' E 006°50'0 0.0
2016-Jun-19 03:33N 53°27' E 006°50'0 0.0
2016-Jun-19 02:32N 53°27' E 006°50'0 0.0
2016-Jun-19 01:28N 53°27' E 006°50'0 0.0
2016-Jun-19 00:29N 53°27' E 006°50'0 0.0
2016-Jun-18 23:33N 53°27' E 006°50'0 0.0
2016-Jun-18 22:32N 53°27' E 006°50'0 0.0
2016-Jun-18 21:33N 53°27' E 006°50'0 0.0
2016-Jun-18 20:33N 53°27' E 006°50'0 0.0
2016-Jun-18 19:30N 53°27' E 006°50'0 0.0
2016-Jun-18 18:26N 53°27' E 006°50'0 0.0
2016-Jun-18 17:33N 53°27' E 006°50'0 0.0
2016-Jun-18 16:33N 53°27' E 006°50'0 0.0
2016-Jun-18 15:31N 53°27' E 006°50'0 0.0
2016-Jun-18 14:29N 53°27' E 006°50'0 0.0
2016-Jun-18 13:33N 53°27' E 006°50'0 0.0
2016-Jun-18 12:33N 53°27' E 006°50'0 0.0
2016-Jun-18 11:33N 53°27' E 006°50'0 0.0
2016-Jun-18 10:32N 53°27' E 006°50'0 0.0
2016-Jun-18 09:28N 53°27' E 006°50'0 0.0
2016-Jun-18 08:33N 53°27' E 006°50'0 0.0
2016-Jun-18 07:33N 53°27' E 006°50'0 0.0
2016-Jun-18 06:33N 53°27' E 006°50'0 0.0
2016-Jun-18 05:25N 53°27' E 006°50'0 0.0
2016-Jun-18 04:30N 53°27' E 006°50'0 0.0
2016-Jun-18 03:33N 53°27' E 006°50'0 0.0
2016-Jun-18 02:33N 53°27' E 006°50'0 0.0
2016-Jun-18 01:33N 53°27' E 006°50'0 0.0
2016-Jun-18 00:32N 53°27' E 006°50'0 0.0
2016-Jun-17 23:29N 53°27' E 006°50'0 0.0
2016-Jun-17 22:33N 53°27' E 006°50'0 0.0
2016-Jun-17 21:28N 53°27' E 006°50'0 0.0
2016-Jun-17 20:33N 53°27' E 006°50'0 0.0
2016-Jun-17 19:32N 53°27' E 006°50'0 0.0
2016-Jun-17 18:28N 53°27' E 006°50'0 0.0
2016-Jun-17 17:31N 53°27' E 006°50'0 0.0
2016-Jun-17 16:32N 53°27' E 006°50'0 0.0
2016-Jun-17 15:33N 53°27' E 006°50'0 0.0
2016-Jun-17 14:33N 53°27' E 006°50'0 0.0
2016-Jun-17 13:32N 53°27' E 006°50'0 0.0
2016-Jun-17 12:32N 53°27' E 006°50'0 0.0
2016-Jun-17 11:33N 53°27' E 006°50'0 0.0
2016-Jun-17 10:33N 53°27' E 006°50'0 0.0
2016-Jun-17 08:33N 53°27' E 006°50'0 0.0
2016-Jun-17 03:28N 53°27' E 006°50'0 0.0
2016-Jun-17 02:33N 53°27' E 006°50'0 0.0
2016-Jun-17 01:33N 53°27' E 006°50'0 0.0
2016-Jun-17 00:32N 53°27' E 006°50'0 0.0
2016-Jun-16 23:31N 53°27' E 006°50'0 0.0
2016-Jun-16 22:33N 53°27' E 006°50'0 0.0
2016-Jun-16 21:33N 53°27' E 006°50'0 0.0
2016-Jun-16 20:33N 53°27' E 006°50'0 0.0
2016-Jun-16 19:32N 53°27' E 006°50'0 0.0
2016-Jun-16 18:31N 53°27' E 006°50'0 0.0
2016-Jun-16 17:32N 53°27' E 006°50'0 0.0
2016-Jun-16 16:32N 53°27' E 006°50'0 0.0
2016-Jun-16 15:33N 53°27' E 006°50'0 0.0
2016-Jun-16 14:32N 53°27' E 006°50'0 0.0
2016-Jun-16 13:32N 53°27' E 006°50'0 0.0
2016-Jun-16 12:30N 53°27' E 006°50'0 0.0
2016-Jun-16 11:25N 53°27' E 006°50'0 0.0
2016-Jun-16 10:29N 53°27' E 006°50'0 0.0
2016-Jun-16 09:32N 53°27' E 006°50'0 0.0
2016-Jun-16 08:30N 53°27' E 006°50'0 0.0
2016-Jun-16 07:33N 53°27' E 006°50'0 0.0
2016-Jun-16 06:33N 53°27' E 006°50'0 0.0
2016-Jun-16 05:33N 53°27' E 006°50'0 0.0
2016-Jun-16 04:33N 53°27' E 006°50'1 0.5
2016-Jun-16 03:31N 53°26' E 006°49'1 0.5
2016-Jun-16 02:28N 53°27' E 006°50'0 0.0
2016-Jun-16 01:28N 53°27' E 006°50'0 0.0
2016-Jun-16 00:22N 53°27' E 006°50'0 0.0
2016-Jun-15 23:33N 53°27' E 006°50'0 0.0
2016-Jun-15 22:31N 53°27' E 006°50'0 0.0
2016-Jun-15 21:28N 53°27' E 006°50'0 0.0
2016-Jun-15 20:28N 53°27' E 006°50'0 0.0
2016-Jun-15 19:29N 53°27' E 006°50'0 0.0
2016-Jun-15 18:28N 53°27' E 006°50'0 0.0
2016-Jun-15 17:30N 53°27' E 006°50'0 0.0
2016-Jun-15 16:33N 53°27' E 006°50'0 0.0
2016-Jun-15 15:33N 53°27' E 006°50'0 0.0
2016-Jun-15 14:33N 53°27' E 006°50'0 0.0
2016-Jun-15 13:33N 53°27' E 006°50'0 0.0
2016-Jun-15 12:30N 53°27' E 006°50'0 0.0
2016-Jun-15 11:33N 53°27' E 006°50'0 0.0
2016-Jun-15 10:33N 53°27' E 006°50'0 0.0
2016-Jun-15 09:33N 53°27' E 006°50'0 0.0
2016-Jun-15 08:33N 53°27' E 006°50'  
Track history (hours):
 
Tides and Currents Weather Stations Pressure Air Temp Water Temp Dewpoint Dewpoint Depression Visibility Wind Speed Wind Dir Waves Ship Positions

Coral Electra

Last reported at 2016-Jun-25 08:32 UTC. Time now 2016-Jun-25 08:53 UTC.
Position N 53°27' E 006°50'.

Length 14 m.

Type: Port tender. MMSI: 244690019.

Date/timePositionNaut miles runAvg speedWind from/ knotsBaromVisibWave heightAir tempDewpointWater temp
2016-Jun-25 08:32N 53°27' E 006°50'0 0.0
2016-Jun-25 07:30N 53°27' E 006°50'0 0.0
2016-Jun-25 06:34N 53°27' E 006°50'0 0.0
2016-Jun-25 05:28N 53°27' E 006°50'0 0.0
2016-Jun-25 04:29N 53°27' E 006°50'0 0.0
2016-Jun-25 03:33N 53°27' E 006°50'0 0.0
2016-Jun-25 02:32N 53°27' E 006°50'0 0.0
2016-Jun-25 01:33N 53°27' E 006°50'0 0.0
2016-Jun-25 00:33N 53°27' E 006°50'0 0.0
2016-Jun-24 23:32N 53°27' E 006°50'0 0.0
2016-Jun-24 22:31N 53°27' E 006°50'0 0.0
2016-Jun-24 21:31N 53°27' E 006°50'0 0.0
2016-Jun-24 20:28N 53°27' E 006°50'0 0.0
2016-Jun-24 19:33N 53°27' E 006°50'0 0.0
2016-Jun-24 18:34N 53°27' E 006°50'0 0.0
2016-Jun-24 17:33N 53°27' E 006°50'0 0.0
2016-Jun-24 16:32N 53°27' E 006°50'0 0.0
2016-Jun-24 15:30N 53°27' E 006°50'0 0.0
2016-Jun-24 14:31N 53°27' E 006°50'2 2.1
2016-Jun-24 13:33N 53°28' E 006°53'1 1.3
2016-Jun-24 12:33N 53°27' E 006°50'1 0.9
2016-Jun-24 11:29N 53°27' E 006°50'0 0.0
2016-Jun-24 10:32N 53°27' E 006°50'0 0.0
2016-Jun-24 09:30N 53°27' E 006°50'0 0.0
2016-Jun-24 08:32N 53°27' E 006°50'0 0.0
2016-Jun-24 07:33N 53°27' E 006°50'0 0.0
2016-Jun-24 04:33N 53°27' E 006°50'0 0.0
2016-Jun-24 03:31N 53°27' E 006°50'0 0.0
2016-Jun-24 02:29N 53°27' E 006°50'0 0.0
2016-Jun-24 01:32N 53°27' E 006°50'0 0.0
2016-Jun-24 00:33N 53°27' E 006°50'0 0.0
2016-Jun-23 23:33N 53°27' E 006°50'0 0.0
2016-Jun-23 22:33N 53°27' E 006°50'0 0.0
2016-Jun-23 21:31N 53°27' E 006°50'0 0.0
2016-Jun-23 20:28N 53°27' E 006°50'0 0.0
2016-Jun-23 19:25N 53°27' E 006°50'0 0.0
2016-Jun-23 18:30N 53°27' E 006°50'0 0.0
2016-Jun-23 17:33N 53°27' E 006°50'0 0.0
2016-Jun-23 16:32N 53°27' E 006°50'0 0.0
2016-Jun-23 15:33N 53°27' E 006°50'0 0.0
2016-Jun-23 14:31N 53°27' E 006°50'0 0.0
2016-Jun-23 13:28N 53°27' E 006°50'0 0.0
2016-Jun-23 12:33N 53°27' E 006°50'0 0.0
2016-Jun-23 11:33N 53°27' E 006°50'0 0.0
2016-Jun-23 10:33N 53°27' E 006°50'0 0.0
2016-Jun-23 09:33N 53°27' E 006°50'0 0.0
2016-Jun-23 08:31N 53°27' E 006°50'0 0.0
2016-Jun-23 07:33N 53°27' E 006°50'0 0.0
2016-Jun-23 05:28N 53°27' E 006°50'0 0.0
2016-Jun-23 04:31N 53°27' E 006°50'0 0.0
2016-Jun-23 03:28N 53°27' E 006°50'0 0.0
2016-Jun-23 02:33N 53°27' E 006°50'0 0.0
2016-Jun-23 01:28N 53°27' E 006°50'0 0.0
2016-Jun-23 00:33N 53°27' E 006°50'0 0.0
2016-Jun-22 23:29N 53°27' E 006°50'0 0.0
2016-Jun-22 22:25N 53°27' E 006°50'0 0.0
2016-Jun-22 21:28N 53°27' E 006°50'0 0.0
2016-Jun-22 20:32N 53°27' E 006°50'0 0.0
2016-Jun-22 19:28N 53°27' E 006°50'0 0.0
2016-Jun-22 18:33N 53°27' E 006°50'0 0.0
2016-Jun-22 17:31N 53°27' E 006°50'0 0.0
2016-Jun-22 16:32N 53°27' E 006°50'5 5.4
2016-Jun-22 15:34N 53°24' E 006°57'5 5.1
2016-Jun-22 14:34N 53°27' E 006°50'0 0.2
2016-Jun-22 13:33N 53°27' E 006°50'0 0.0
2016-Jun-22 12:32N 53°27' E 006°50'0 0.0
2016-Jun-22 11:32N 53°27' E 006°50'8 6.8
2016-Jun-22 10:25N 53°34' E 006°45'1 1.3
2016-Jun-22 09:32N 53°33' E 006°43'1414.0
2016-Jun-22 08:33N 53°22' E 006°58'7 6.3
2016-Jun-22 07:31N 53°27' E 006°50'0 0.0
2016-Jun-22 06:29N 53°27' E 006°50'0 0.0
2016-Jun-22 05:31N 53°27' E 006°50'0 0.0
2016-Jun-22 04:30N 53°27' E 006°50'0 0.0
2016-Jun-22 03:31N 53°27' E 006°50'0 0.0
2016-Jun-22 02:34N 53°27' E 006°50'0 0.0
2016-Jun-22 01:31N 53°27' E 006°50'0 0.0
2016-Jun-22 00:33N 53°27' E 006°50'0 0.0
2016-Jun-21 23:32N 53°27' E 006°50'0 0.0
2016-Jun-21 22:22N 53°27' E 006°50'0 0.0
2016-Jun-21 21:33N 53°27' E 006°50'0 0.0
2016-Jun-21 20:33N 53°27' E 006°50'0 0.0
2016-Jun-21 19:30N 53°27' E 006°50'0 0.0
2016-Jun-21 18:31N 53°27' E 006°50'0 0.0
2016-Jun-21 17:33N 53°27' E 006°50'0 0.0
2016-Jun-21 16:28N 53°27' E 006°50'0 0.0
2016-Jun-21 15:33N 53°27' E 006°50'0 0.0
2016-Jun-21 14:33N 53°27' E 006°50'0 0.0
2016-Jun-21 13:28N 53°27' E 006°50'0 0.0
2016-Jun-21 12:32N 53°27' E 006°50'0 0.0
2016-Jun-21 11:32N 53°27' E 006°50'0 0.0
2016-Jun-21 10:34N 53°27' E 006°50'0 0.0
2016-Jun-21 09:31N 53°27' E 006°50'0 0.0
2016-Jun-21 08:32N 53°27' E 006°50'0 0.0
2016-Jun-21 07:32N 53°27' E 006°50'0 0.0
2016-Jun-21 04:33N 53°27' E 006°50'0 0.0
2016-Jun-21 03:23N 53°27' E 006°50'0 0.0
2016-Jun-21 02:33N 53°27' E 006°50'0 0.0
2016-Jun-21 01:33N 53°27' E 006°50'0 0.0
2016-Jun-21 00:33N 53°27' E 006°50'0 0.0
2016-Jun-20 23:33N 53°27' E 006°50'0 0.0
2016-Jun-20 22:33N 53°27' E 006°50'0 0.0
2016-Jun-20 21:31N 53°27' E 006°50'0 0.0
2016-Jun-20 20:30N 53°27' E 006°50'0 0.0
2016-Jun-20 19:28N 53°27' E 006°50'0 0.0
2016-Jun-20 18:32N 53°27' E 006°50'0 0.0
2016-Jun-20 17:32N 53°27' E 006°50'0 0.0
2016-Jun-20 16:33N 53°27' E 006°50'0 0.0
2016-Jun-20 15:33N 53°27' E 006°50'0 0.0
2016-Jun-20 14:31N 53°27' E 006°50'0 0.0
2016-Jun-20 13:28N 53°27' E 006°50'0 0.0
2016-Jun-20 12:32N 53°27' E 006°50'0 0.0
2016-Jun-20 11:33N 53°27' E 006°50'0 0.0
2016-Jun-20 10:32N 53°27' E 006°50'0 0.0
2016-Jun-20 09:33N 53°27' E 006°50'0 0.0
2016-Jun-20 08:28N 53°27' E 006°50'0 0.0
2016-Jun-20 07:28N 53°27' E 006°50'0 0.0
2016-Jun-20 06:33N 53°27' E 006°50'0 0.0
2016-Jun-20 05:33N 53°27' E 006°50'0 0.0
2016-Jun-20 04:32N 53°27' E 006°50'0 0.0
2016-Jun-20 03:28N 53°27' E 006°50'0 0.0
2016-Jun-20 02:33N 53°27' E 006°50'0 0.0
2016-Jun-20 01:31N 53°27' E 006°50'0 0.0
2016-Jun-20 00:31N 53°27' E 006°50'0 0.0
2016-Jun-19 23:30N 53°27' E 006°50'0 0.0
2016-Jun-19 22:28N 53°27' E 006°50'0 0.0
2016-Jun-19 21:33N 53°27' E 006°50'0 0.0
2016-Jun-19 20:29N 53°27' E 006°50'0 0.0
2016-Jun-19 19:32N 53°27' E 006°50'0 0.0
2016-Jun-19 18:33N 53°27' E 006°50'0 0.0
2016-Jun-19 17:32N 53°27' E 006°50'0 0.0
2016-Jun-19 16:33N 53°27' E 006°50'7 6.8
2016-Jun-19 15:33N 53°31' E 006°41'2322.7
2016-Jun-19 14:33N 53°45' E 006°10'6 6.3
2016-Jun-19 13:32N 53°50' E 006°03'1414.0
2016-Jun-19 12:33N 53°41' E 006°21'1414.4
2016-Jun-19 11:33N 53°33' E 006°41'8 8.1
2016-Jun-19 10:32N 53°27' E 006°50'0 0.0
2016-Jun-19 09:33N 53°27' E 006°50'0 0.0
2016-Jun-19 08:32N 53°27' E 006°50'0 0.0
2016-Jun-19 07:29N 53°27' E 006°50'0 0.0
2016-Jun-19 06:33N 53°27' E 006°50'0 0.0
2016-Jun-19 05:30N 53°27' E 006°50'0 0.0
2016-Jun-19 04:31N 53°27' E 006°50'0 0.0
2016-Jun-19 03:33N 53°27' E 006°50'0 0.0
2016-Jun-19 02:32N 53°27' E 006°50'0 0.0
2016-Jun-19 01:28N 53°27' E 006°50'0 0.0
2016-Jun-19 00:29N 53°27' E 006°50'0 0.0
2016-Jun-18 23:33N 53°27' E 006°50'0 0.0
2016-Jun-18 22:32N 53°27' E 006°50'0 0.0
2016-Jun-18 21:33N 53°27' E 006°50'0 0.0
2016-Jun-18 20:33N 53°27' E 006°50'0 0.0
2016-Jun-18 19:30N 53°27' E 006°50'0 0.0
2016-Jun-18 18:26N 53°27' E 006°50'0 0.0
2016-Jun-18 17:33N 53°27' E 006°50'0 0.0
2016-Jun-18 16:33N 53°27' E 006°50'0 0.0
2016-Jun-18 15:31N 53°27' E 006°50'0 0.0
2016-Jun-18 14:29N 53°27' E 006°50'0 0.0
2016-Jun-18 13:33N 53°27' E 006°50'0 0.0
2016-Jun-18 12:33N 53°27' E 006°50'0 0.0
2016-Jun-18 11:33N 53°27' E 006°50'0 0.0
2016-Jun-18 10:32N 53°27' E 006°50'0 0.0
2016-Jun-18 09:28N 53°27' E 006°50'0 0.0
2016-Jun-18 08:33N 53°27' E 006°50'0 0.0
2016-Jun-18 07:33N 53°27' E 006°50'0 0.0
2016-Jun-18 06:33N 53°27' E 006°50'0 0.0
2016-Jun-18 05:25N 53°27' E 006°50'0 0.0
2016-Jun-18 04:30N 53°27' E 006°50'0 0.0
2016-Jun-18 03:33N 53°27' E 006°50'0 0.0
2016-Jun-18 02:33N 53°27' E 006°50'0 0.0
2016-Jun-18 01:33N 53°27' E 006°50'0 0.0
2016-Jun-18 00:32N 53°27' E 006°50'0 0.0
2016-Jun-17 23:29N 53°27' E 006°50'0 0.0
2016-Jun-17 22:33N 53°27' E 006°50'0 0.0
2016-Jun-17 21:28N 53°27' E 006°50'0 0.0
2016-Jun-17 20:33N 53°27' E 006°50'0 0.0
2016-Jun-17 19:32N 53°27' E 006°50'0 0.0
2016-Jun-17 18:28N 53°27' E 006°50'0 0.0
2016-Jun-17 17:31N 53°27' E 006°50'0 0.0
2016-Jun-17 16:32N 53°27' E 006°50'0 0.0
2016-Jun-17 15:33N 53°27' E 006°50'0 0.0
2016-Jun-17 14:33N 53°27' E 006°50'0 0.0
2016-Jun-17 13:32N 53°27' E 006°50'0 0.0
2016-Jun-17 12:32N 53°27' E 006°50'0 0.0
2016-Jun-17 11:33N 53°27' E 006°50'0 0.0
2016-Jun-17 10:33N 53°27' E 006°50'0 0.0
2016-Jun-17 08:33N 53°27' E 006°50'0 0.0
2016-Jun-17 03:28N 53°27' E 006°50'0 0.0
2016-Jun-17 02:33N 53°27' E 006°50'0 0.0
2016-Jun-17 01:33N 53°27' E 006°50'0 0.0
2016-Jun-17 00:32N 53°27' E 006°50'0 0.0
2016-Jun-16 23:31N 53°27' E 006°50'0 0.0
2016-Jun-16 22:33N 53°27' E 006°50'0 0.0
2016-Jun-16 21:33N 53°27' E 006°50'0 0.0
2016-Jun-16 20:33N 53°27' E 006°50'0 0.0
2016-Jun-16 19:32N 53°27' E 006°50'0 0.0
2016-Jun-16 18:31N 53°27' E 006°50'0 0.0
2016-Jun-16 17:32N 53°27' E 006°50'0 0.0
2016-Jun-16 16:32N 53°27' E 006°50'0 0.0
2016-Jun-16 15:33N 53°27' E 006°50'0 0.0
2016-Jun-16 14:32N 53°27' E 006°50'0 0.0
2016-Jun-16 13:32N 53°27' E 006°50'0 0.0
2016-Jun-16 12:30N 53°27' E 006°50'0 0.0
2016-Jun-16 11:25N 53°27' E 006°50'0 0.0
2016-Jun-16 10:29N 53°27' E 006°50'0 0.0
2016-Jun-16 09:32N 53°27' E 006°50'0 0.0
2016-Jun-16 08:30N 53°27' E 006°50'0 0.0
2016-Jun-16 07:33N 53°27' E 006°50'0 0.0
2016-Jun-16 06:33N 53°27' E 006°50'0 0.0
2016-Jun-16 05:33N 53°27' E 006°50'0 0.0
2016-Jun-16 04:33N 53°27' E 006°50'1 0.5
2016-Jun-16 03:31N 53°26' E 006°49'1 0.5
2016-Jun-16 02:28N 53°27' E 006°50'0 0.0
2016-Jun-16 01:28N 53°27' E 006°50'0 0.0
2016-Jun-16 00:22N 53°27' E 006°50'0 0.0
2016-Jun-15 23:33N 53°27' E 006°50'0 0.0
2016-Jun-15 22:31N 53°27' E 006°50'0 0.0
2016-Jun-15 21:28N 53°27' E 006°50'0 0.0
2016-Jun-15 20:28N 53°27' E 006°50'0 0.0
2016-Jun-15 19:29N 53°27' E 006°50'0 0.0
2016-Jun-15 18:28N 53°27' E 006°50'0 0.0
2016-Jun-15 17:30N 53°27' E 006°50'0 0.0
2016-Jun-15 16:33N 53°27' E 006°50'0 0.0
2016-Jun-15 15:33N 53°27' E 006°50'0 0.0
2016-Jun-15 14:33N 53°27' E 006°50'0 0.0
2016-Jun-15 13:33N 53°27' E 006°50'0 0.0
2016-Jun-15 12:30N 53°27' E 006°50'0 0.0
2016-Jun-15 11:33N 53°27' E 006°50'0 0.0
2016-Jun-15 10:33N 53°27' E 006°50'0 0.0
2016-Jun-15 09:33N 53°27' E 006°50'0 0.0
2016-Jun-15 08:33N 53°27' E 006°50'  

Dump ship's entire track history